createdAt,value
2018-12-15T00:00:50.239Z,88.69
2018-12-15T00:01:50.195Z,88.79
2018-12-15T00:02:50.202Z,88.60
2018-12-15T00:03:50.167Z,88.41
2018-12-15T00:04:50.143Z,88.50
2018-12-15T00:05:50.139Z,88.31
2018-12-15T00:06:50.083Z,88.31
2018-12-15T00:07:50.076Z,88.50
2018-12-15T00:08:50.054Z,88.79
2018-12-15T00:09:50.055Z,88.31
2018-12-15T00:10:50.064Z,88.03
2018-12-15T00:11:49.987Z,88.31
2018-12-15T00:12:49.960Z,88.31
2018-12-15T00:13:49.941Z,87.84
2018-12-15T00:14:49.923Z,88.12
2018-12-15T00:15:49.898Z,88.41
2018-12-15T00:16:49.895Z,88.69
2018-12-15T00:17:49.862Z,88.88
2018-12-15T00:18:49.839Z,89.17
2018-12-15T00:19:49.828Z,88.60
2018-12-15T00:20:49.795Z,88.41
2018-12-15T00:21:49.808Z,88.31
2018-12-15T00:22:49.794Z,88.12
2018-12-15T00:23:49.741Z,88.31
2018-12-15T00:24:49.711Z,87.65
2018-12-15T00:25:49.689Z,87.27
2018-12-15T00:26:49.676Z,87.18
2018-12-15T00:27:49.791Z,87.37
2018-12-15T00:28:49.637Z,86.90
2018-12-15T00:29:49.613Z,87.65
2018-12-15T00:30:49.594Z,88.12
2018-12-15T00:31:49.566Z,88.41
2018-12-15T00:32:49.552Z,88.69
2018-12-15T00:33:49.567Z,88.69
2018-12-15T00:34:49.521Z,88.31
2018-12-15T00:35:49.499Z,88.03
2018-12-15T00:36:49.465Z,88.03
2018-12-15T00:37:49.445Z,87.84
2018-12-15T00:38:49.466Z,87.84
2018-12-15T00:39:49.405Z,88.03
2018-12-15T00:40:49.383Z,88.03
2018-12-15T00:41:49.366Z,88.03
2018-12-15T00:42:49.347Z,88.03
2018-12-15T00:43:49.351Z,88.12
2018-12-15T00:44:49.304Z,88.60
2018-12-15T00:45:49.295Z,88.69
2018-12-15T00:46:49.262Z,88.79
2018-12-15T00:47:49.246Z,88.03
2018-12-15T00:48:49.226Z,88.03
2018-12-15T00:49:49.203Z,88.31
2018-12-15T00:50:49.189Z,88.41
2018-12-15T00:51:49.163Z,88.12
2018-12-15T00:52:49.135Z,88.03
2018-12-15T00:53:49.143Z,88.31
2018-12-15T00:54:49.132Z,88.69
2018-12-15T00:55:49.095Z,88.79
2018-12-15T00:56:49.062Z,88.69
2018-12-15T00:57:49.035Z,88.60
2018-12-15T00:58:49.018Z,88.69
2018-12-15T00:59:49.134Z,88.88
2018-12-15T01:00:48.972Z,88.98
2018-12-15T01:01:48.957Z,88.69
2018-12-15T01:02:48.945Z,88.12
2018-12-15T01:03:48.927Z,88.03
2018-12-15T01:04:48.890Z,88.12
2018-12-15T01:05:48.894Z,88.31
2018-12-15T01:06:48.905Z,88.50
2018-12-15T01:07:48.834Z,88.50
2018-12-15T01:08:48.820Z,88.41
2018-12-15T01:09:48.791Z,88.03
2018-12-15T01:10:48.766Z,87.18
2018-12-15T01:11:48.763Z,87.46
2018-12-15T01:12:48.764Z,86.99
2018-12-15T01:13:48.709Z,87.37
2018-12-15T01:14:48.697Z,87.93
2018-12-15T01:15:48.676Z,88.03
2018-12-15T01:16:48.646Z,88.12
2018-12-15T01:17:48.683Z,88.41
2018-12-15T01:18:48.612Z,88.41
2018-12-15T01:19:48.586Z,88.31
2018-12-15T01:20:48.562Z,87.74
2018-12-15T01:21:48.542Z,87.74
2018-12-15T01:22:48.525Z,88.31
2018-12-15T01:23:48.512Z,88.60
2018-12-15T01:24:48.488Z,87.65
2018-12-15T01:25:48.471Z,87.74
2018-12-15T01:26:48.442Z,87.84
2018-12-15T01:27:48.431Z,87.84
2018-12-15T01:28:48.406Z,87.65
2018-12-15T01:29:48.389Z,87.93
2018-12-15T01:30:48.365Z,87.84
2018-12-15T01:31:48.339Z,87.84
2018-12-15T01:32:48.321Z,88.12
2018-12-15T01:33:48.429Z,88.31
2018-12-15T01:34:48.278Z,88.22
2018-12-15T01:35:48.259Z,88.12
2018-12-15T01:36:48.235Z,88.22
2018-12-15T01:37:48.215Z,88.22
2018-12-15T01:38:48.191Z,88.41
2018-12-15T01:39:48.200Z,88.50
2018-12-15T01:40:48.168Z,88.31
2018-12-15T01:41:48.144Z,88.22
2018-12-15T01:42:48.119Z,87.93
2018-12-15T01:43:48.091Z,87.37
2018-12-15T01:44:48.080Z,87.74
2018-12-15T01:45:48.091Z,87.84
2018-12-15T01:46:48.038Z,87.93
2018-12-15T01:47:48.010Z,88.03
2018-12-15T01:48:48.009Z,88.12
2018-12-15T01:49:47.966Z,87.84
2018-12-15T01:50:47.959Z,87.74
2018-12-15T01:51:47.939Z,87.46
2018-12-15T01:52:47.922Z,87.46
2018-12-15T01:53:47.889Z,87.74
2018-12-15T01:54:47.862Z,87.74
2018-12-15T01:55:47.845Z,87.84
2018-12-15T01:56:47.837Z,87.93
2018-12-15T01:57:47.816Z,87.93
2018-12-15T01:58:47.815Z,87.93
2018-12-15T01:59:47.763Z,87.84
2018-12-15T02:00:47.768Z,88.03
2018-12-15T02:01:47.729Z,88.03
2018-12-15T02:02:47.708Z,88.03
2018-12-15T02:03:47.676Z,88.03
2018-12-15T02:04:47.669Z,87.84
2018-12-15T02:05:47.672Z,87.93
2018-12-15T02:06:47.628Z,87.65
2018-12-15T02:07:47.600Z,87.74
2018-12-15T02:08:47.579Z,87.37
2018-12-15T02:09:47.564Z,86.90
2018-12-15T02:10:47.547Z,87.55
2018-12-15T02:11:47.581Z,87.84
2018-12-15T02:12:47.505Z,87.74
2018-12-15T02:13:47.477Z,87.37
2018-12-15T02:14:47.453Z,87.08
2018-12-15T02:15:47.444Z,87.37
2018-12-15T02:16:47.432Z,87.46
2018-12-15T02:17:47.540Z,87.84
2018-12-15T02:18:47.377Z,87.84
2018-12-15T02:19:47.359Z,87.93
2018-12-15T02:20:47.333Z,88.22
2018-12-15T02:21:47.313Z,88.22
2018-12-15T02:22:47.299Z,88.22
2018-12-15T02:23:47.279Z,88.03
2018-12-15T02:24:47.250Z,88.03
2018-12-15T02:25:47.230Z,87.93
2018-12-15T02:26:47.219Z,88.03
2018-12-15T02:27:47.187Z,87.93
2018-12-15T02:28:47.198Z,87.74
2018-12-15T02:29:47.161Z,87.74
2018-12-15T02:30:47.725Z,87.55
2018-12-15T02:31:47.124Z,87.37
2018-12-15T02:32:47.086Z,87.46
2018-12-15T02:33:47.120Z,87.55
2018-12-15T02:34:47.048Z,87.55
2018-12-15T02:35:47.040Z,86.99
2018-12-15T02:36:47.010Z,87.18
2018-12-15T02:37:46.986Z,87.08
2018-12-15T02:38:46.965Z,86.99
2018-12-15T02:39:46.979Z,86.99
2018-12-15T02:40:46.920Z,86.99
2018-12-15T02:41:47.305Z,87.08
2018-12-15T02:42:46.885Z,87.27
2018-12-15T02:43:46.860Z,87.65
2018-12-15T02:44:46.873Z,87.84
2018-12-15T02:45:46.819Z,87.37
2018-12-15T02:46:46.798Z,87.37
2018-12-15T02:47:46.776Z,87.55
2018-12-15T02:48:46.787Z,87.65
2018-12-15T02:49:46.793Z,87.55
2018-12-15T02:50:46.730Z,87.65
2018-12-15T02:51:46.706Z,87.55
2018-12-15T02:52:46.678Z,87.27
2018-12-15T02:53:46.674Z,86.99
2018-12-15T02:54:46.637Z,86.61
2018-12-15T02:55:46.615Z,86.61
2018-12-15T02:56:46.594Z,86.90
2018-12-15T02:57:46.577Z,87.37
2018-12-15T02:58:46.564Z,87.55
2018-12-15T02:59:46.573Z,87.46
2018-12-15T03:00:46.526Z,87.55
2018-12-15T03:01:46.502Z,87.65
2018-12-15T03:02:46.468Z,87.84
2018-12-15T03:03:46.457Z,87.37
2018-12-15T03:04:46.448Z,87.18
2018-12-15T03:05:46.477Z,87.46
2018-12-15T03:06:46.399Z,87.55
2018-12-15T03:07:46.404Z,87.46
2018-12-15T03:08:46.347Z,86.90
2018-12-15T03:09:46.325Z,86.99
2018-12-15T03:10:46.307Z,86.99
2018-12-15T03:11:46.329Z,86.99
2018-12-15T03:12:46.284Z,87.27
2018-12-15T03:13:46.244Z,87.37
2018-12-15T03:14:46.225Z,87.84
2018-12-15T03:15:46.205Z,87.65
2018-12-15T03:16:46.185Z,87.74
2018-12-15T03:17:48.989Z,87.55
2018-12-15T03:18:46.142Z,87.55
2018-12-15T03:19:46.121Z,87.84
2018-12-15T03:20:46.105Z,87.74
2018-12-15T03:21:46.082Z,87.74
2018-12-15T03:22:46.067Z,87.74
2018-12-15T03:23:46.054Z,87.93
2018-12-15T03:24:46.030Z,88.12
2018-12-15T03:25:45.997Z,88.41
2018-12-15T03:26:45.987Z,88.50
2018-12-15T03:27:46.096Z,88.41
2018-12-15T03:28:45.943Z,88.69
2018-12-15T03:29:45.930Z,88.88
2018-12-15T03:30:45.907Z,88.60
2018-12-15T03:31:45.875Z,88.60
2018-12-15T03:32:45.857Z,88.69
2018-12-15T03:33:45.894Z,88.69
2018-12-15T03:34:45.823Z,88.69
2018-12-15T03:35:45.797Z,88.88
2018-12-15T03:36:45.771Z,88.98
2018-12-15T03:37:45.750Z,88.98
2018-12-15T03:38:45.733Z,88.98
2018-12-15T03:39:45.911Z,89.07
2018-12-15T03:40:45.693Z,88.41
2018-12-15T03:41:45.669Z,88.03
2018-12-15T03:42:45.678Z,88.12
2018-12-15T03:43:45.637Z,88.22
2018-12-15T03:44:45.620Z,88.22
2018-12-15T03:45:45.594Z,88.50
2018-12-15T03:46:45.578Z,88.79
2018-12-15T03:47:45.547Z,88.98
2018-12-15T03:48:45.544Z,89.26
2018-12-15T03:49:45.520Z,88.79
2018-12-15T03:50:45.497Z,88.79
2018-12-15T03:51:45.467Z,88.41
2018-12-15T03:52:45.442Z,88.69
2018-12-15T03:53:45.432Z,89.07
2018-12-15T03:54:45.655Z,88.98
2018-12-15T03:55:45.391Z,89.17
2018-12-15T03:56:45.371Z,89.17
2018-12-15T03:57:45.338Z,89.07
2018-12-15T03:58:45.337Z,88.98
2018-12-15T03:59:45.301Z,89.07
2018-12-15T04:00:45.293Z,89.07
2018-12-15T04:01:45.298Z,88.88
2018-12-15T04:02:45.252Z,88.98
2018-12-15T04:03:45.219Z,88.98
2018-12-15T04:04:45.215Z,89.17
2018-12-15T04:05:45.179Z,88.88
2018-12-15T04:06:45.216Z,88.88
2018-12-15T04:07:45.153Z,89.26
2018-12-15T04:08:45.120Z,89.45
2018-12-15T04:09:45.106Z,89.36
2018-12-15T04:10:45.079Z,89.26
2018-12-15T04:11:45.059Z,89.36
2018-12-15T04:12:45.039Z,89.45
2018-12-15T04:13:45.026Z,89.45
2018-12-15T04:14:45.004Z,89.45
2018-12-15T04:15:45.001Z,89.36
2018-12-15T04:16:45.033Z,89.26
2018-12-15T04:17:44.928Z,89.45
2018-12-15T04:18:44.923Z,89.73
2018-12-15T04:19:44.893Z,89.83
2018-12-15T04:20:44.872Z,89.64
2018-12-15T04:21:44.852Z,89.45
2018-12-15T04:22:44.832Z,89.64
2018-12-15T04:23:44.959Z,89.73
2018-12-15T04:24:44.788Z,89.54
2018-12-15T04:25:44.775Z,89.64
2018-12-15T04:26:44.757Z,89.73
2018-12-15T04:27:44.738Z,89.73
2018-12-15T04:28:44.709Z,89.83
2018-12-15T04:29:44.711Z,89.73
2018-12-15T04:30:44.667Z,89.64
2018-12-15T04:31:44.646Z,89.54
2018-12-15T04:32:45.292Z,89.64
2018-12-15T04:33:44.613Z,89.45
2018-12-15T04:34:44.583Z,89.45
2018-12-15T04:35:44.573Z,89.54
2018-12-15T04:36:44.573Z,88.98
2018-12-15T04:37:44.532Z,89.26
2018-12-15T04:38:44.507Z,89.26
2018-12-15T04:39:44.514Z,88.60
2018-12-15T04:40:44.471Z,88.60
2018-12-15T04:41:44.491Z,88.79
2018-12-15T04:42:44.448Z,88.31
2018-12-15T04:43:44.417Z,88.50
2018-12-15T04:44:44.388Z,88.88
2018-12-15T04:45:44.361Z,89.07
2018-12-15T04:46:44.335Z,89.54
2018-12-15T04:47:44.315Z,89.54
2018-12-15T04:48:44.350Z,89.64
2018-12-15T04:49:44.292Z,89.26
2018-12-15T04:50:44.266Z,89.26
2018-12-15T04:51:44.237Z,88.88
2018-12-15T04:52:44.223Z,88.79
2018-12-15T04:53:44.192Z,88.88
2018-12-15T04:54:44.178Z,88.12
2018-12-15T04:55:44.165Z,87.74
2018-12-15T04:56:44.169Z,87.93
2018-12-15T04:57:44.111Z,88.03
2018-12-15T04:58:44.090Z,87.93
2018-12-15T04:59:44.081Z,88.12
2018-12-15T05:00:44.049Z,88.22
2018-12-15T05:01:44.057Z,88.12
2018-12-15T05:02:44.319Z,88.12
2018-12-15T05:03:43.993Z,88.12
2018-12-15T05:04:44.014Z,88.41
2018-12-15T05:05:43.945Z,88.41
2018-12-15T05:06:43.930Z,88.41
2018-12-15T05:07:43.906Z,88.50
2018-12-15T05:08:43.887Z,88.50
2018-12-15T05:09:43.896Z,88.60
2018-12-15T05:10:43.883Z,88.60
2018-12-15T05:11:43.826Z,88.60
2018-12-15T05:12:43.803Z,88.60
2018-12-15T05:13:43.785Z,88.60
2018-12-15T05:14:43.768Z,88.69
2018-12-15T05:15:43.825Z,88.79
2018-12-15T05:16:43.725Z,88.88
2018-12-15T05:17:43.715Z,88.50
2018-12-15T05:18:43.684Z,88.79
2018-12-15T05:19:43.664Z,89.07
2018-12-15T05:20:43.640Z,88.79
2018-12-15T05:21:43.643Z,88.03
2018-12-15T05:22:43.606Z,88.12
2018-12-15T05:23:43.582Z,88.12
2018-12-15T05:24:43.564Z,88.50
2018-12-15T05:25:43.549Z,88.79
2018-12-15T05:26:43.673Z,88.88
2018-12-15T05:27:43.497Z,88.60
2018-12-15T05:28:43.478Z,88.69
2018-12-15T05:29:43.464Z,88.88
2018-12-15T05:30:43.432Z,88.98
2018-12-15T05:31:43.421Z,89.07
2018-12-15T05:32:43.428Z,88.88
2018-12-15T05:33:43.373Z,88.41
2018-12-15T05:34:43.362Z,88.22
2018-12-15T05:35:43.334Z,87.46
2018-12-15T05:36:43.329Z,87.27
2018-12-15T05:37:43.430Z,87.37
2018-12-15T05:38:43.275Z,87.27
2018-12-15T05:39:43.270Z,86.90
2018-12-15T05:40:43.249Z,86.61
2018-12-15T05:41:43.223Z,86.23
2018-12-15T05:42:43.194Z,86.23
2018-12-15T05:43:43.201Z,86.52
2018-12-15T05:44:43.419Z,86.61
2018-12-15T05:45:43.131Z,86.61
2018-12-15T05:46:43.106Z,86.61
2018-12-15T05:47:43.092Z,85.95
2018-12-15T05:48:43.071Z,86.23
2018-12-15T05:49:43.059Z,86.52
2018-12-15T05:50:43.169Z,86.42
2018-12-15T05:51:43.017Z,85.38
2018-12-15T05:52:42.998Z,85.76
2018-12-15T05:53:43.026Z,85.76
2018-12-15T05:54:42.941Z,85.76
2018-12-15T05:55:42.926Z,85.95
2018-12-15T05:56:42.907Z,85.66
2018-12-15T05:57:42.895Z,85.10
2018-12-15T05:58:43.093Z,85.19
2018-12-15T05:59:42.844Z,85.28
2018-12-15T06:00:42.834Z,83.87
2018-12-15T06:01:42.798Z,82.73
2018-12-15T06:02:42.780Z,82.73
2018-12-15T06:03:42.759Z,83.78
2018-12-15T06:04:42.783Z,84.34
2018-12-15T06:05:42.717Z,84.53
2018-12-15T06:06:42.701Z,83.87
2018-12-15T06:07:42.687Z,83.49
2018-12-15T06:08:42.672Z,83.97
2018-12-15T06:09:42.686Z,84.63
2018-12-15T06:10:42.617Z,84.72
2018-12-15T06:11:42.614Z,85.00
2018-12-15T06:12:42.576Z,85.38
2018-12-15T06:13:42.568Z,85.76
2018-12-15T06:14:42.577Z,86.14
2018-12-15T06:15:42.532Z,86.23
2018-12-15T06:16:42.505Z,85.76
2018-12-15T06:17:42.475Z,84.44
2018-12-15T06:18:42.459Z,84.72
2018-12-15T06:19:42.463Z,85.19
2018-12-15T06:20:42.415Z,84.34
2018-12-15T06:21:42.392Z,84.34
2018-12-15T06:22:42.380Z,84.63
2018-12-15T06:23:42.351Z,83.87
2018-12-15T06:24:42.362Z,83.87
2018-12-15T06:25:42.309Z,84.16
2018-12-15T06:26:42.293Z,84.25
2018-12-15T06:27:42.271Z,84.63
2018-12-15T06:28:42.248Z,85.00
2018-12-15T06:29:42.267Z,85.47
2018-12-15T06:30:42.217Z,85.85
2018-12-15T06:31:42.221Z,85.85
2018-12-15T06:32:42.178Z,85.76
2018-12-15T06:33:42.144Z,85.85
2018-12-15T06:34:42.135Z,85.76
2018-12-15T06:35:42.165Z,85.85
2018-12-15T06:36:42.088Z,85.76
2018-12-15T06:37:42.060Z,85.95
2018-12-15T06:38:42.047Z,86.14
2018-12-15T06:39:42.035Z,86.04
2018-12-15T06:40:42.002Z,86.23
2018-12-15T06:41:41.996Z,86.52
2018-12-15T06:42:41.968Z,86.52
2018-12-15T06:43:41.938Z,86.04
2018-12-15T06:44:41.916Z,86.23
2018-12-15T06:45:41.899Z,86.33
2018-12-15T06:46:41.906Z,86.61
2018-12-15T06:47:41.877Z,86.42
2018-12-15T06:48:41.848Z,85.76
2018-12-15T06:49:41.832Z,85.76
2018-12-15T06:50:42.200Z,85.85
2018-12-15T06:51:41.783Z,86.14
2018-12-15T06:52:41.757Z,86.04
2018-12-15T06:53:41.739Z,86.23
2018-12-15T06:54:41.714Z,86.52
2018-12-15T06:55:41.705Z,86.23
2018-12-15T06:56:41.686Z,85.57
2018-12-15T06:57:41.655Z,85.28
2018-12-15T06:58:41.643Z,85.76
2018-12-15T06:59:41.614Z,86.14
2018-12-15T07:00:41.601Z,86.23
2018-12-15T07:01:41.674Z,86.14
2018-12-15T07:02:41.549Z,86.23
2018-12-15T07:03:41.543Z,84.72
2018-12-15T07:04:41.506Z,83.49
2018-12-15T07:05:41.494Z,83.97
2018-12-15T07:06:42.100Z,83.68
2018-12-15T07:07:41.478Z,83.59
2018-12-15T07:08:41.439Z,81.88
2018-12-15T07:09:41.461Z,81.79
2018-12-15T07:10:41.385Z,81.98
2018-12-15T07:11:41.381Z,82.64
2018-12-15T07:12:41.362Z,83.49
2018-12-15T07:13:41.339Z,83.97
2018-12-15T07:14:41.306Z,83.68
2018-12-15T07:15:41.293Z,83.68
2018-12-15T07:16:41.276Z,82.92
2018-12-15T07:17:41.240Z,83.40
2018-12-15T07:18:44.744Z,83.97
2018-12-15T07:19:41.203Z,83.11
2018-12-15T07:20:41.186Z,82.92
2018-12-15T07:21:41.171Z,82.17
2018-12-15T07:22:41.139Z,80.84
2018-12-15T07:23:41.157Z,80.94
2018-12-15T07:24:41.106Z,81.79
2018-12-15T07:25:41.079Z,81.98
2018-12-15T07:26:41.061Z,81.88
2018-12-15T07:27:41.037Z,81.41
2018-12-15T07:28:41.059Z,81.60
2018-12-15T07:29:41.049Z,81.13
2018-12-15T07:30:40.996Z,81.79
2018-12-15T07:31:41.100Z,80.94
2018-12-15T07:32:40.937Z,81.22
2018-12-15T07:33:40.918Z,81.41
2018-12-15T07:34:40.898Z,81.03
2018-12-15T07:35:40.892Z,80.56
2018-12-15T07:36:40.862Z,80.08
2018-12-15T07:37:40.830Z,79.71
2018-12-15T07:38:40.882Z,79.61
2018-12-15T07:39:40.787Z,79.52
2018-12-15T07:40:40.779Z,79.80
2018-12-15T07:41:40.750Z,79.90
2018-12-15T07:42:40.731Z,80.56
2018-12-15T07:43:40.709Z,81.51
2018-12-15T07:44:40.720Z,80.56
2018-12-15T07:45:40.668Z,80.46
2018-12-15T07:46:40.662Z,80.94
2018-12-15T07:47:40.648Z,80.27
2018-12-15T07:48:40.679Z,79.43
2018-12-15T07:49:40.628Z,79.33
2018-12-15T07:50:40.575Z,80.18
2018-12-15T07:51:40.542Z,81.03
2018-12-15T07:52:40.530Z,80.94
2018-12-15T07:53:40.514Z,81.03
2018-12-15T07:54:40.521Z,79.80
2018-12-15T07:55:40.462Z,78.95
2018-12-15T07:56:40.445Z,78.95
2018-12-15T07:57:40.438Z,78.29
2018-12-15T07:58:40.456Z,78.39
2018-12-15T07:59:40.385Z,78.48
2018-12-15T08:00:40.355Z,78.20
2018-12-15T08:01:40.339Z,78.58
2018-12-15T08:02:40.336Z,79.05
2018-12-15T08:03:40.309Z,79.52
2018-12-15T08:04:40.314Z,78.10
2018-12-15T08:05:40.254Z,78.29
2018-12-15T08:06:40.234Z,78.39
2018-12-15T08:07:40.223Z,77.44
2018-12-15T08:08:40.194Z,77.53
2018-12-15T08:09:40.171Z,77.34
2018-12-15T08:10:40.168Z,77.91
2018-12-15T08:11:40.143Z,77.91
2018-12-15T08:12:40.118Z,77.63
2018-12-15T08:13:40.092Z,78.48
2018-12-15T08:14:40.072Z,79.24
2018-12-15T08:15:40.052Z,79.43
2018-12-15T08:16:40.046Z,78.58
2018-12-15T08:17:40.051Z,78.76
2018-12-15T08:18:39.990Z,78.48
2018-12-15T08:19:39.970Z,78.10
2018-12-15T08:20:39.954Z,77.53
2018-12-15T08:21:39.980Z,78.10
2018-12-15T08:22:39.907Z,78.39
2018-12-15T08:23:39.886Z,77.82
2018-12-15T08:24:39.866Z,77.34
2018-12-15T08:25:39.860Z,77.44
2018-12-15T08:26:39.839Z,77.53
2018-12-15T08:27:39.835Z,77.91
2018-12-15T08:28:39.825Z,78.86
2018-12-15T08:29:39.765Z,78.39
2018-12-15T08:30:39.748Z,78.39
2018-12-15T08:31:39.725Z,79.05
2018-12-15T08:32:39.706Z,79.52
2018-12-15T08:33:39.682Z,79.05
2018-12-15T08:34:39.690Z,78.67
2018-12-15T08:35:39.638Z,78.67
2018-12-15T08:36:39.631Z,78.76
2018-12-15T08:37:39.617Z,78.95
2018-12-15T08:38:39.577Z,78.01
2018-12-15T08:39:39.612Z,76.40
2018-12-15T08:40:39.533Z,75.93
2018-12-15T08:41:39.519Z,77.15
2018-12-15T08:42:39.501Z,76.31
2018-12-15T08:43:39.485Z,75.74
2018-12-15T08:44:39.462Z,75.55
2018-12-15T08:45:39.434Z,75.55
2018-12-15T08:46:39.431Z,75.55
2018-12-15T08:47:39.395Z,74.98
2018-12-15T08:48:39.376Z,75.93
2018-12-15T08:49:39.347Z,76.21
2018-12-15T08:50:39.553Z,77.53
2018-12-15T08:51:39.310Z,76.59
2018-12-15T08:52:39.383Z,77.10
2018-12-15T08:53:39.623Z,77.29
2018-12-15T08:54:39.269Z,77.10
2018-12-15T08:55:39.239Z,77.20
2018-12-15T08:56:39.254Z,77.29
2018-12-15T08:57:39.237Z,77.01
2018-12-15T08:58:39.167Z,77.39
2018-12-15T08:59:39.141Z,77.39
2018-12-15T09:00:39.128Z,76.91
2018-12-15T09:01:39.116Z,76.91
2018-12-15T09:02:39.098Z,76.63
2018-12-15T09:03:39.075Z,75.21
2018-12-15T09:04:39.046Z,74.83
2018-12-15T09:05:39.038Z,74.83
2018-12-15T09:06:39.000Z,75.40
2018-12-15T09:07:39.016Z,75.68
2018-12-15T09:08:39.002Z,76.15
2018-12-15T09:09:38.942Z,76.72
2018-12-15T09:10:38.921Z,76.34
2018-12-15T09:11:38.913Z,76.34
2018-12-15T09:12:38.881Z,76.53
2018-12-15T09:13:38.898Z,75.68
2018-12-15T09:14:38.847Z,76.15
2018-12-15T09:15:38.827Z,75.68
2018-12-15T09:16:38.800Z,75.49
2018-12-15T09:17:38.788Z,76.53
2018-12-15T09:18:38.891Z,76.06
2018-12-15T09:19:38.748Z,75.78
2018-12-15T09:20:38.717Z,76.15
2018-12-15T09:21:38.694Z,74.74
2018-12-15T09:22:38.675Z,74.83
2018-12-15T09:23:38.654Z,75.49
2018-12-15T09:24:38.709Z,75.49
2018-12-15T09:25:38.613Z,75.12
2018-12-15T09:26:38.588Z,74.83
2018-12-15T09:27:38.570Z,74.93
2018-12-15T09:28:38.565Z,75.21
2018-12-15T09:29:38.541Z,75.12
2018-12-15T09:30:38.518Z,75.12
2018-12-15T09:31:38.506Z,75.40
2018-12-15T09:32:38.472Z,75.21
2018-12-15T09:33:38.494Z,75.78
2018-12-15T09:34:38.443Z,75.78
2018-12-15T09:35:38.436Z,74.55
2018-12-15T09:36:38.388Z,74.64
2018-12-15T09:37:38.369Z,75.21
2018-12-15T09:38:38.348Z,74.74
2018-12-15T09:39:38.332Z,74.07
2018-12-15T09:40:38.334Z,73.79
2018-12-15T09:41:38.442Z,73.32
2018-12-15T09:42:38.269Z,72.37
2018-12-15T09:43:38.255Z,72.18
2018-12-15T09:44:38.229Z,72.18
2018-12-15T09:45:38.219Z,72.85
2018-12-15T09:46:38.200Z,72.18
2018-12-15T09:47:38.164Z,73.03
2018-12-15T09:48:38.164Z,72.09
2018-12-15T09:49:38.141Z,72.18
2018-12-15T09:50:38.101Z,71.61
2018-12-15T09:51:38.094Z,71.52
2018-12-15T09:52:38.090Z,71.80
2018-12-15T09:53:38.046Z,71.14
2018-12-15T09:54:38.036Z,70.76
2018-12-15T09:55:38.013Z,70.20
2018-12-15T09:56:37.986Z,69.82
2018-12-15T09:57:37.981Z,69.53
2018-12-15T09:58:37.948Z,69.53
2018-12-15T09:59:37.916Z,70.01
2018-12-15T10:00:37.910Z,70.76
2018-12-15T10:01:37.898Z,70.76
2018-12-15T10:02:37.897Z,70.67
2018-12-15T10:03:37.841Z,70.57
2018-12-15T10:04:37.817Z,70.57
2018-12-15T10:05:37.799Z,71.14
2018-12-15T10:06:37.776Z,70.76
2018-12-15T10:07:37.797Z,71.14
2018-12-15T10:08:37.737Z,69.72
2018-12-15T10:09:37.718Z,68.59
2018-12-15T10:10:37.700Z,68.59
2018-12-15T10:11:37.675Z,69.63
2018-12-15T10:12:37.684Z,70.86
2018-12-15T10:13:37.645Z,70.20
2018-12-15T10:14:37.625Z,69.25
2018-12-15T10:15:37.605Z,69.91
2018-12-15T10:16:37.583Z,71.04
2018-12-15T10:17:37.587Z,70.57
2018-12-15T10:18:37.545Z,69.63
2018-12-15T10:19:37.510Z,69.34
2018-12-15T10:20:37.495Z,69.63
2018-12-15T10:21:37.503Z,70.01
2018-12-15T10:22:37.451Z,70.57
2018-12-15T10:23:37.428Z,69.44
2018-12-15T10:24:37.419Z,67.93
2018-12-15T10:25:37.430Z,68.02
2018-12-15T10:26:37.404Z,68.21
2018-12-15T10:27:37.361Z,68.02
2018-12-15T10:28:37.330Z,68.12
2018-12-15T10:29:37.313Z,68.49
2018-12-15T10:30:37.301Z,68.59
2018-12-15T10:31:37.296Z,68.59
2018-12-15T10:32:37.288Z,68.49
2018-12-15T10:33:37.232Z,68.21
2018-12-15T10:34:37.206Z,67.17
2018-12-15T10:35:37.202Z,67.36
2018-12-15T10:36:37.306Z,67.17
2018-12-15T10:37:37.148Z,67.93
2018-12-15T10:38:37.127Z,67.26
2018-12-15T10:39:37.118Z,66.13
2018-12-15T10:40:37.085Z,65.84
2018-12-15T10:41:37.064Z,65.56
2018-12-15T10:42:37.092Z,65.94
2018-12-15T10:43:37.021Z,66.79
2018-12-15T10:44:37.007Z,65.94
2018-12-15T10:45:37.007Z,65.66
2018-12-15T10:46:36.960Z,66.13
2018-12-15T10:47:36.949Z,66.22
2018-12-15T10:48:36.958Z,66.60
2018-12-15T10:49:36.903Z,66.31
2018-12-15T10:50:36.882Z,66.50
2018-12-15T10:51:36.862Z,66.50
2018-12-15T10:52:36.843Z,66.22
2018-12-15T10:53:36.820Z,65.75
2018-12-15T10:54:37.538Z,65.66
2018-12-15T10:55:36.786Z,66.03
2018-12-15T10:56:36.768Z,67.17
2018-12-15T10:57:36.739Z,68.40
2018-12-15T10:58:36.733Z,68.02
2018-12-15T10:59:36.852Z,67.45
2018-12-15T11:00:36.675Z,66.98
2018-12-15T11:01:36.659Z,67.17
2018-12-15T11:02:36.638Z,67.07
2018-12-15T11:03:36.619Z,67.07
2018-12-15T11:04:36.598Z,67.07
2018-12-15T11:05:36.651Z,66.60
2018-12-15T11:06:36.561Z,66.69
2018-12-15T11:07:36.546Z,67.07
2018-12-15T11:08:36.523Z,67.55
2018-12-15T11:09:36.500Z,67.83
2018-12-15T11:10:36.470Z,67.93
2018-12-15T11:11:36.468Z,68.49
2018-12-15T11:12:36.432Z,69.44
2018-12-15T11:13:36.419Z,68.40
2018-12-15T11:14:36.392Z,67.93
2018-12-15T11:15:36.412Z,67.55
2018-12-15T11:16:36.351Z,68.30
2018-12-15T11:17:36.335Z,69.25
2018-12-15T11:18:36.374Z,68.30
2018-12-15T11:19:37.277Z,67.55
2018-12-15T11:20:36.278Z,66.69
2018-12-15T11:21:36.251Z,66.13
2018-12-15T11:22:36.243Z,66.03
2018-12-15T11:23:36.207Z,66.13
2018-12-15T11:24:36.193Z,66.31
2018-12-15T11:25:36.168Z,66.50
2018-12-15T11:26:36.153Z,66.41
2018-12-15T11:27:36.140Z,66.41
2018-12-15T11:28:36.112Z,66.69
2018-12-15T11:29:36.227Z,67.17
2018-12-15T11:30:36.084Z,66.98
2018-12-15T11:31:36.049Z,67.07
2018-12-15T11:32:36.025Z,66.60
2018-12-15T11:33:36.172Z,66.69
2018-12-15T11:34:36.012Z,66.69
2018-12-15T11:35:35.990Z,67.07
2018-12-15T11:36:35.944Z,67.93
2018-12-15T11:37:35.925Z,68.30
2018-12-15T11:38:35.906Z,67.55
2018-12-15T11:39:35.890Z,67.07
2018-12-15T11:40:35.911Z,66.60
2018-12-15T11:41:35.853Z,66.22
2018-12-15T11:42:35.824Z,65.75
2018-12-15T11:43:35.801Z,65.84
2018-12-15T11:44:35.782Z,66.03
2018-12-15T11:45:35.765Z,65.84
2018-12-15T11:46:35.758Z,65.84
2018-12-15T11:47:35.754Z,66.69
2018-12-15T11:48:35.705Z,67.17
2018-12-15T11:49:35.680Z,66.31
2018-12-15T11:50:35.657Z,66.03
2018-12-15T11:51:35.638Z,66.41
2018-12-15T11:52:35.752Z,66.31
2018-12-15T11:53:35.618Z,66.41
2018-12-15T11:54:35.597Z,66.60
2018-12-15T11:55:35.572Z,67.07
2018-12-15T11:56:35.536Z,66.88
2018-12-15T11:57:35.521Z,66.13
2018-12-15T11:58:35.503Z,65.75
2018-12-15T11:59:35.488Z,66.60
2018-12-15T12:00:35.471Z,66.79
2018-12-15T12:01:35.444Z,65.66
2018-12-15T12:02:35.566Z,65.47
2018-12-15T12:03:35.403Z,65.09
2018-12-15T12:04:35.377Z,65.28
2018-12-15T12:05:35.373Z,65.84
2018-12-15T12:06:35.332Z,65.28
2018-12-15T12:07:35.329Z,65.28
2018-12-15T12:08:35.300Z,65.09
2018-12-15T12:09:35.284Z,65.09
2018-12-15T12:10:35.258Z,64.99
2018-12-15T12:11:35.235Z,64.90
2018-12-15T12:12:35.225Z,64.61
2018-12-15T12:13:35.252Z,65.09
2018-12-15T12:14:35.173Z,65.75
2018-12-15T12:15:35.149Z,64.90
2018-12-15T12:16:35.138Z,64.99
2018-12-15T12:17:35.111Z,65.09
2018-12-15T12:18:35.109Z,65.18
2018-12-15T12:19:35.209Z,65.28
2018-12-15T12:20:35.063Z,64.99
2018-12-15T12:21:35.040Z,65.47
2018-12-15T12:22:35.016Z,66.03
2018-12-15T12:23:34.994Z,66.03
2018-12-15T12:24:34.971Z,65.47
2018-12-15T12:25:34.978Z,65.09
2018-12-15T12:26:34.940Z,64.52
2018-12-15T12:27:34.909Z,64.71
2018-12-15T12:28:34.885Z,65.18
2018-12-15T12:29:34.866Z,65.47
2018-12-15T12:30:34.978Z,65.37
2018-12-15T12:31:34.820Z,66.41
2018-12-15T12:32:34.806Z,66.60
2018-12-15T12:33:34.784Z,66.50
2018-12-15T12:34:34.766Z,66.79
2018-12-15T12:35:34.741Z,67.07
2018-12-15T12:36:34.730Z,66.22
2018-12-15T12:37:34.701Z,65.94
2018-12-15T12:38:34.692Z,65.75
2018-12-15T12:39:34.663Z,66.22
2018-12-15T12:40:34.642Z,66.13
2018-12-15T12:41:34.652Z,66.03
2018-12-15T12:42:34.628Z,65.37
2018-12-15T12:43:34.580Z,65.28
2018-12-15T12:44:34.558Z,65.84
2018-12-15T12:45:34.544Z,65.37
2018-12-15T12:46:34.516Z,65.66
2018-12-15T12:47:34.561Z,65.47
2018-12-15T12:48:34.494Z,65.37
2018-12-15T12:49:34.459Z,65.09
2018-12-15T12:50:34.444Z,65.09
2018-12-15T12:51:34.420Z,65.28
2018-12-15T12:52:34.394Z,64.99